createdAt,value
2019-03-06T00:01:21.978Z,99.90
2019-03-06T00:03:50.961Z,99.90
2019-03-06T00:06:19.965Z,99.90
2019-03-06T00:08:49.063Z,99.90
2019-03-06T00:11:19.788Z,99.90
2019-03-06T00:13:49.034Z,99.90
2019-03-06T00:16:17.959Z,99.90
2019-03-06T00:18:46.867Z,99.90
2019-03-06T00:21:15.791Z,99.90
2019-03-06T00:23:44.882Z,99.90
2019-03-06T00:26:13.809Z,99.90
2019-03-06T00:29:01.848Z,99.90
2019-03-06T00:31:30.694Z,99.90
2019-03-06T00:34:18.800Z,99.90
2019-03-06T00:36:47.746Z,99.90
2019-03-06T00:39:16.934Z,99.90
2019-03-06T00:41:51.237Z,99.90
2019-03-06T00:44:20.156Z,99.90
2019-03-06T00:47:08.362Z,99.90
2019-03-06T00:49:37.493Z,99.90
2019-03-06T00:52:06.425Z,99.90
2019-03-06T00:54:54.488Z,99.90
2019-03-06T00:57:23.433Z,99.90
2019-03-06T00:59:52.291Z,99.90
2019-03-06T01:02:21.299Z,99.90
2019-03-06T01:04:50.151Z,99.90
2019-03-06T01:07:19.095Z,99.90
2019-03-06T01:10:07.804Z,99.90
2019-03-06T01:12:36.830Z,99.90
2019-03-06T01:15:06.363Z,99.90
2019-03-06T01:17:35.304Z,99.90
2019-03-06T01:20:05.363Z,99.90
2019-03-06T01:22:34.296Z,99.90
2019-03-06T01:25:22.589Z,99.90
2019-03-06T01:27:51.606Z,99.90
2019-03-06T01:30:20.645Z,99.90
2019-03-06T01:33:30.637Z,99.90
2019-03-06T01:36:37.776Z,99.90
2019-03-06T01:39:38.779Z,99.90
2019-03-06T01:42:31.827Z,99.90
2019-03-06T01:45:03.774Z,99.90
2019-03-06T01:47:32.711Z,99.90
2019-03-06T01:50:01.700Z,99.90
2019-03-06T01:52:30.704Z,99.90
2019-03-06T01:55:00.073Z,99.90
2019-03-06T01:57:29.069Z,99.90
2019-03-06T01:59:57.990Z,99.90
2019-03-06T02:02:46.110Z,99.90
2019-03-06T02:05:15.658Z,99.90
2019-03-06T02:07:44.662Z,99.90
2019-03-06T02:10:14.466Z,99.90
2019-03-06T02:12:43.405Z,99.90
2019-03-06T02:15:13.796Z,99.90
2019-03-06T02:17:42.788Z,99.90
2019-03-06T02:20:13.599Z,99.90
2019-03-06T02:22:42.602Z,99.90
2019-03-06T02:25:11.987Z,99.90
2019-03-06T02:27:41.297Z,99.90
2019-03-06T02:30:13.178Z,99.90
2019-03-06T02:32:42.018Z,99.90
2019-03-06T02:35:10.951Z,99.90
2019-03-06T02:37:39.943Z,99.90
2019-03-06T02:40:08.992Z,99.90
2019-03-06T02:42:37.987Z,99.90
2019-03-06T02:45:08.262Z,99.90
2019-03-06T02:47:37.104Z,99.90
2019-03-06T02:50:25.158Z,99.90
2019-03-06T02:52:54.153Z,99.90
2019-03-06T02:55:23.166Z,99.90
2019-03-06T02:58:12.845Z,99.90
2019-03-06T03:01:00.914Z,99.90
2019-03-06T03:03:48.929Z,99.90
2019-03-06T03:06:26.745Z,99.90
2019-03-06T03:08:55.711Z,99.90
2019-03-06T03:11:24.938Z,99.90
2019-03-06T03:13:57.190Z,99.90
2019-03-06T03:16:26.396Z,99.90
2019-03-06T03:19:01.617Z,99.90
2019-03-06T03:21:49.757Z,99.90
2019-03-06T03:24:19.069Z,99.90
2019-03-06T03:26:48.096Z,99.90
2019-03-06T03:29:16.963Z,99.90
2019-03-06T03:32:05.022Z,99.90
2019-03-06T03:34:34.142Z,99.90
2019-03-06T03:37:03.169Z,99.90
2019-03-06T03:39:32.211Z,99.90
2019-03-06T03:42:01.228Z,99.90
2019-03-06T03:44:49.381Z,99.90
2019-03-06T03:47:37.509Z,99.90
2019-03-06T03:50:06.838Z,99.90
2019-03-06T03:52:35.851Z,99.90
2019-03-06T03:55:05.667Z,99.90
2019-03-06T03:57:34.786Z,99.90
2019-03-06T04:00:04.463Z,99.90
2019-03-06T04:02:33.518Z,99.90
2019-03-06T04:05:21.711Z,99.90
2019-03-06T04:07:50.644Z,99.90
2019-03-06T04:10:19.674Z,99.90
2019-03-06T04:13:00.263Z,99.90
2019-03-06T04:15:29.311Z,99.90
2019-03-06T04:17:58.333Z,99.90
2019-03-06T04:20:27.388Z,99.90
2019-03-06T04:22:56.338Z,99.90
2019-03-06T04:25:44.467Z,99.90
2019-03-06T04:28:13.483Z,99.90
2019-03-06T04:30:42.524Z,99.90
2019-03-06T04:33:11.555Z,99.90
2019-03-06T04:35:40.518Z,99.90
2019-03-06T04:38:09.523Z,99.90
2019-03-06T04:40:38.397Z,99.90
2019-03-06T04:43:07.415Z,99.90
2019-03-06T04:45:36.281Z,99.90
2019-03-06T04:48:05.290Z,99.90
2019-03-06T04:50:34.212Z,99.90
2019-03-06T04:53:03.127Z,99.90
2019-03-06T04:55:32.134Z,99.90
2019-03-06T04:58:00.978Z,99.90
2019-03-06T05:00:36.017Z,99.90
2019-03-06T05:03:05.003Z,99.90
2019-03-06T05:05:53.159Z,99.90
2019-03-06T05:08:41.137Z,99.90
2019-03-06T05:11:10.181Z,99.90
2019-03-06T05:13:51.054Z,99.90
2019-03-06T05:16:21.748Z,99.90
2019-03-06T05:18:53.833Z,99.90
2019-03-06T05:21:23.351Z,99.90
2019-03-06T05:23:52.316Z,99.90
2019-03-06T05:26:21.352Z,99.90
2019-03-06T05:28:50.455Z,99.90
2019-03-06T05:31:19.332Z,99.90
2019-03-06T05:33:48.191Z,99.90
2019-03-06T05:36:54.603Z,99.90
2019-03-06T05:39:26.434Z,99.90
2019-03-06T05:41:55.289Z,99.90
2019-03-06T05:44:24.298Z,99.90
2019-03-06T05:46:53.548Z,99.90
2019-03-06T05:49:22.426Z,99.90
2019-03-06T05:51:51.468Z,99.90
2019-03-06T05:54:20.339Z,99.90
2019-03-06T05:56:49.371Z,99.90
2019-03-06T05:59:18.596Z,99.90
2019-03-06T06:01:47.543Z,99.90
2019-03-06T06:04:16.485Z,99.90
2019-03-06T06:06:53.200Z,99.90
2019-03-06T06:09:22.218Z,99.90
2019-03-06T06:12:02.981Z,99.90
2019-03-06T06:14:31.850Z,99.90
2019-03-06T06:17:00.815Z,99.90
2019-03-06T06:19:29.667Z,99.90
2019-03-06T06:22:05.768Z,99.90
2019-03-06T06:24:34.762Z,99.90
2019-03-06T06:27:03.695Z,99.90
2019-03-06T06:29:32.644Z,99.90
2019-03-06T06:32:02.015Z,99.90
2019-03-06T06:34:50.169Z,99.90
2019-03-06T06:37:38.296Z,99.90
2019-03-06T06:40:07.925Z,99.90
2019-03-06T06:42:36.960Z,99.90
2019-03-06T06:45:25.377Z,99.90
2019-03-06T06:48:14.250Z,99.90
2019-03-06T06:51:01.621Z,99.90
2019-03-06T06:53:32.678Z,99.90
2019-03-06T06:56:48.926Z,99.90
2019-03-06T06:59:29.166Z,99.90
2019-03-06T07:02:56.203Z,99.90
2019-03-06T07:05:39.306Z,99.90
2019-03-06T07:08:49.454Z,99.90
2019-03-06T07:11:34.552Z,99.90
2019-03-06T07:14:21.294Z,99.90
2019-03-06T07:17:03.518Z,99.90
2019-03-06T07:19:37.074Z,99.90
2019-03-06T07:22:28.176Z,99.90
2019-03-06T07:25:02.912Z,99.90
2019-03-06T07:27:50.955Z,99.90
2019-03-06T07:30:39.019Z,99.90
2019-03-06T07:33:26.014Z,99.90
2019-03-06T07:36:33.847Z,99.90
2019-03-06T07:39:24.166Z,99.90
2019-03-06T07:42:05.002Z,99.90
2019-03-06T07:44:58.781Z,99.90
2019-03-06T07:48:05.967Z,99.90
2019-03-06T07:50:51.955Z,99.90
2019-03-06T07:54:11.172Z,99.90
2019-03-06T07:59:21.850Z,99.90
2019-03-06T08:01:57.066Z,99.90
2019-03-06T08:04:26.052Z,99.90
2019-03-06T08:07:02.422Z,99.90
2019-03-06T08:09:31.393Z,99.90
2019-03-06T08:15:29.041Z,99.90
2019-03-06T08:18:22.974Z,99.90
2019-03-06T08:21:20.062Z,99.90
2019-03-06T08:24:11.058Z,99.90
2019-03-06T08:26:40.514Z,99.90
2019-03-06T08:29:09.497Z,99.90
2019-03-06T08:31:57.558Z,99.90
2019-03-06T08:34:26.568Z,99.90
2019-03-06T08:36:55.746Z,99.90
2019-03-06T08:39:30.259Z,99.90
2019-03-06T08:42:00.362Z,99.90
2019-03-06T08:44:29.279Z,99.90
2019-03-06T08:47:10.231Z,99.90
2019-03-06T08:50:04.928Z,99.90
2019-03-06T08:53:10.602Z,99.90
2019-03-06T08:55:58.983Z,99.90
2019-03-06T08:58:53.723Z,98.90
2019-03-06T09:01:42.591Z,98.60
2019-03-06T09:04:29.776Z,99.90
2019-03-06T09:07:11.303Z,99.80
2019-03-06T09:09:57.950Z,99.70
2019-03-06T09:12:46.024Z,99.90
2019-03-06T09:15:30.726Z,99.90
2019-03-06T09:18:18.891Z,99.30
2019-03-06T09:21:18.802Z,99.60
2019-03-06T09:24:19.129Z,98.60
2019-03-06T09:27:06.063Z,98.60
2019-03-06T09:29:53.365Z,98.30
2019-03-06T09:33:03.587Z,97.90
2019-03-06T09:36:09.059Z,97.20
2019-03-06T09:38:53.746Z,96.70
2019-03-06T09:41:34.798Z,96.70
2019-03-06T09:44:22.870Z,95.70
2019-03-06T09:47:09.754Z,95.60
2019-03-06T09:50:16.886Z,93.90
2019-03-06T09:53:09.282Z,93.70
2019-03-06T09:55:54.638Z,94.50
2019-03-06T09:58:40.734Z,93.80
2019-03-06T10:01:47.186Z,93.30
2019-03-06T10:04:38.143Z,92.10
2019-03-06T10:07:26.218Z,93.40
2019-03-06T10:10:18.977Z,92.90
2019-03-06T10:13:09.822Z,91.40
2019-03-06T10:15:53.039Z,90.30
2019-03-06T10:18:37.000Z,90.10
2019-03-06T10:21:06.065Z,89.50
2019-03-06T10:23:54.208Z,88.90
2019-03-06T10:26:42.619Z,89.40
2019-03-06T10:29:30.754Z,88.30
2019-03-06T10:32:18.803Z,84.50
2019-03-06T10:34:47.745Z,84.70
2019-03-06T10:37:35.947Z,83.80
2019-03-06T10:40:24.151Z,79.00
2019-03-06T10:42:53.434Z,80.10
2019-03-06T10:45:22.627Z,80.90
2019-03-06T10:47:51.927Z,78.50
2019-03-06T10:50:41.657Z,79.90
2019-03-06T10:53:29.855Z,79.50
2019-03-06T10:56:17.967Z,77.60
2019-03-06T10:58:46.971Z,77.10
2019-03-06T11:01:16.951Z,76.20
2019-03-06T11:04:06.546Z,81.90
2019-03-06T11:06:55.218Z,77.50
2019-03-06T11:09:25.910Z,75.90
2019-03-06T11:11:55.290Z,70.70
2019-03-06T11:14:24.319Z,70.40
2019-03-06T11:16:53.638Z,71.80
2019-03-06T11:19:23.025Z,71.10
2019-03-06T11:21:52.142Z,73.80
2019-03-06T11:24:21.434Z,72.60
2019-03-06T11:26:50.598Z,72.10
2019-03-06T11:29:19.803Z,72.30
2019-03-06T11:31:48.982Z,71.50
2019-03-06T11:34:37.126Z,70.10
2019-03-06T11:37:06.685Z,70.90
2019-03-06T11:39:35.762Z,70.70
2019-03-06T11:42:24.371Z,67.10
2019-03-06T11:44:53.484Z,66.30
2019-03-06T11:47:22.718Z,67.30
2019-03-06T11:50:10.841Z,70.60
2019-03-06T11:52:39.825Z,70.40
2019-03-06T11:55:28.032Z,71.60
2019-03-06T11:57:57.022Z,74.00
2019-03-06T12:00:33.116Z,71.80
2019-03-06T12:03:02.306Z,71.90
2019-03-06T12:05:31.722Z,72.70
2019-03-06T12:08:08.238Z,72.40
2019-03-06T12:10:37.241Z,73.60
2019-03-06T12:13:09.885Z,73.30
2019-03-06T12:15:59.818Z,74.10
2019-03-06T12:18:28.905Z,73.60
2019-03-06T12:21:04.198Z,74.40
2019-03-06T12:23:52.314Z,73.60
2019-03-06T12:26:21.323Z,73.50
2019-03-06T12:28:50.250Z,72.00
2019-03-06T12:31:38.458Z,72.60
2019-03-06T12:34:07.711Z,73.50
2019-03-06T12:36:36.718Z,74.00
2019-03-06T12:39:24.854Z,75.70
2019-03-06T12:42:14.672Z,80.00
2019-03-06T12:44:43.731Z,78.90
2019-03-06T12:47:12.810Z,78.60
2019-03-06T12:49:47.552Z,77.40
2019-03-06T12:52:35.768Z,75.70
2019-03-06T12:55:05.309Z,77.60
2019-03-06T12:57:34.245Z,76.10
2019-03-06T13:00:22.360Z,75.90
2019-03-06T13:03:12.290Z,76.30
2019-03-06T13:05:41.376Z,74.40
2019-03-06T13:08:29.605Z,75.00
2019-03-06T13:10:58.839Z,75.20
2019-03-06T13:13:35.216Z,75.30
2019-03-06T13:16:17.738Z,76.70
2019-03-06T13:18:46.729Z,75.10
2019-03-06T13:21:21.198Z,75.80
2019-03-06T13:23:50.289Z,75.60
2019-03-06T13:26:19.266Z,75.50
2019-03-06T13:28:56.893Z,75.30
2019-03-06T13:31:38.149Z,76.40
2019-03-06T13:34:26.287Z,75.10
2019-03-06T13:36:55.589Z,74.30
2019-03-06T13:39:43.647Z,72.50
2019-03-06T13:42:31.717Z,74.00
2019-03-06T13:45:00.707Z,74.50
2019-03-06T13:47:29.639Z,74.00
2019-03-06T13:49:58.839Z,73.30
2019-03-06T13:52:28.106Z,73.30
2019-03-06T13:54:57.102Z,73.50
2019-03-06T13:57:26.038Z,72.80
2019-03-06T13:59:54.952Z,72.80
2019-03-06T14:02:23.955Z,73.40
2019-03-06T14:04:53.233Z,72.40
2019-03-06T14:07:41.434Z,72.30
2019-03-06T14:10:10.801Z,72.10
2019-03-06T14:12:39.898Z,69.80
2019-03-06T14:15:09.750Z,70.00
2019-03-06T14:17:39.239Z,70.50
2019-03-06T14:20:08.486Z,69.80
2019-03-06T14:22:37.634Z,68.90
2019-03-06T14:25:06.962Z,68.10
2019-03-06T14:27:36.173Z,69.20
2019-03-06T14:30:07.783Z,67.60
2019-03-06T14:32:38.592Z,68.10
2019-03-06T14:35:26.892Z,69.50
2019-03-06T14:38:15.110Z,69.70
2019-03-06T14:43:16.452Z,69.60
2019-03-06T14:46:04.608Z,69.10
2019-03-06T14:48:33.619Z,69.60
2019-03-06T14:51:21.737Z,70.40
2019-03-06T14:54:09.962Z,70.50
2019-03-06T14:56:39.022Z,72.00
2019-03-06T14:59:08.031Z,71.40
2019-03-06T15:01:56.151Z,71.00
2019-03-06T15:04:25.279Z,70.30
2019-03-06T15:06:54.202Z,71.70
2019-03-06T15:09:27.322Z,71.80
2019-03-06T15:12:07.773Z,71.20
2019-03-06T15:14:48.826Z,72.40
2019-03-06T15:17:29.319Z,72.90
2019-03-06T15:19:58.250Z,71.50
2019-03-06T15:22:27.246Z,70.10
2019-03-06T15:24:56.250Z,71.60
2019-03-06T15:27:25.169Z,71.00
2019-03-06T15:29:54.169Z,72.00
2019-03-06T15:32:23.243Z,73.50
2019-03-06T15:34:52.174Z,73.50
2019-03-06T15:37:21.170Z,74.10
2019-03-06T15:39:50.090Z,73.40
2019-03-06T15:42:19.181Z,74.10
2019-03-06T15:44:48.113Z,74.40
2019-03-06T15:47:17.038Z,75.40
2019-03-06T15:49:46.046Z,73.40
2019-03-06T15:52:15.179Z,73.40
2019-03-06T15:54:44.472Z,75.80
2019-03-06T15:57:13.940Z,76.00
2019-03-06T15:59:42.972Z,75.50
2019-03-06T16:05:19.566Z,76.60
2019-03-06T16:07:48.972Z,77.70
2019-03-06T16:10:18.253Z,77.20
2019-03-06T16:12:48.572Z,77.90
2019-03-06T16:15:38.416Z,78.20
2019-03-06T16:18:10.223Z,78.40
2019-03-06T16:21:00.395Z,78.80
2019-03-06T16:23:29.560Z,80.10
2019-03-06T16:25:58.683Z,79.70
2019-03-06T16:28:27.860Z,80.90
2019-03-06T16:30:57.913Z,80.10
2019-03-06T16:33:27.038Z,81.80
2019-03-06T16:35:57.695Z,81.70
2019-03-06T16:38:45.840Z,82.80
2019-03-06T16:41:14.942Z,83.20
2019-03-06T16:43:43.942Z,82.80
2019-03-06T16:46:13.426Z,83.60
2019-03-06T16:48:42.416Z,83.60
2019-03-06T16:51:11.554Z,84.20
2019-03-06T16:53:40.657Z,85.10
2019-03-06T16:56:10.039Z,84.90
2019-03-06T16:58:58.150Z,86.20
2019-03-06T17:01:27.354Z,86.80
2019-03-06T17:03:56.350Z,87.30
2019-03-06T17:06:44.557Z,88.00
2019-03-06T17:09:13.680Z,87.50
2019-03-06T17:11:42.746Z,88.70
2019-03-06T17:14:31.010Z,89.20
2019-03-06T17:17:01.259Z,89.00
2019-03-06T17:19:49.475Z,90.20
2019-03-06T17:22:37.671Z,90.20
2019-03-06T17:25:07.146Z,90.50
2019-03-06T17:27:36.139Z,90.70
2019-03-06T17:30:07.791Z,90.80
2019-03-06T17:32:36.797Z,91.10
2019-03-06T17:35:08.726Z,91.00
2019-03-06T17:37:38.006Z,91.20
2019-03-06T17:40:26.334Z,91.20
2019-03-06T17:42:55.740Z,90.80
2019-03-06T17:45:44.002Z,91.00
2019-03-06T17:48:13.389Z,91.00
2019-03-06T17:50:42.473Z,91.20
2019-03-06T17:53:11.634Z,91.00
2019-03-06T17:56:01.197Z,91.30
2019-03-06T17:58:30.142Z,91.60
2019-03-06T18:01:05.346Z,91.60
2019-03-06T18:03:53.486Z,91.80
2019-03-06T18:06:22.706Z,91.30
2019-03-06T18:08:51.710Z,91.60
2019-03-06T18:11:20.811Z,91.80
2019-03-06T18:13:49.823Z,91.80
2019-03-06T18:16:18.827Z,92.10
2019-03-06T18:18:47.838Z,92.50
2019-03-06T18:21:16.701Z,92.50
2019-03-06T18:23:45.628Z,92.70
2019-03-06T18:26:14.554Z,93.00
2019-03-06T18:28:43.474Z,93.00
2019-03-06T18:31:12.489Z,93.50
2019-03-06T18:34:00.722Z,93.60
2019-03-06T18:36:29.690Z,93.30
2019-03-06T18:38:58.769Z,93.40
2019-03-06T18:41:27.763Z,93.40
2019-03-06T18:43:56.685Z,93.40
2019-03-06T18:46:25.688Z,93.70
2019-03-06T18:49:13.986Z,94.30
2019-03-06T18:51:43.012Z,94.40
2019-03-06T18:54:31.122Z,94.40
2019-03-06T18:57:25.514Z,94.60
2019-03-06T18:59:54.503Z,94.60
2019-03-06T19:02:23.507Z,95.10
2019-03-06T19:04:52.629Z,95.20
2019-03-06T19:07:21.635Z,95.30
2019-03-06T19:09:50.709Z,95.10
2019-03-06T19:12:19.805Z,95.40
2019-03-06T19:14:48.798Z,95.40
2019-03-06T19:17:17.810Z,95.80
2019-03-06T19:19:47.703Z,95.50
2019-03-06T19:22:16.694Z,95.70
2019-03-06T19:24:45.693Z,95.80
2019-03-06T19:27:14.631Z,95.90
2019-03-06T19:29:43.570Z,96.10
2019-03-06T19:32:12.512Z,95.80
2019-03-06T19:34:41.638Z,96.00
2019-03-06T19:37:29.772Z,96.00
2019-03-06T19:39:58.628Z,95.90
2019-03-06T19:42:27.629Z,96.30
2019-03-06T19:44:56.622Z,96.30
2019-03-06T19:47:44.844Z,96.10
2019-03-06T19:50:18.726Z,95.90
2019-03-06T19:52:47.903Z,95.50
2019-03-06T19:55:18.236Z,94.90
2019-03-06T19:58:10.740Z,94.10
2019-03-06T20:00:40.393Z,93.70
2019-03-06T20:03:09.518Z,93.50
2019-03-06T20:05:38.868Z,93.40
2019-03-06T20:08:09.829Z,93.60
2019-03-06T20:10:39.233Z,92.80
2019-03-06T20:13:08.735Z,93.30
2019-03-06T20:15:38.394Z,94.70
2019-03-06T20:18:07.493Z,94.70
2019-03-06T20:20:36.751Z,94.60
2019-03-06T20:23:05.970Z,94.20
2019-03-06T20:25:37.084Z,94.60
2019-03-06T20:28:06.000Z,94.60
2019-03-06T20:30:35.249Z,94.30
2019-03-06T20:33:04.551Z,94.60
2019-03-06T20:35:33.647Z,94.30
2019-03-06T20:38:02.655Z,94.60
2019-03-06T20:40:32.018Z,94.90
2019-03-06T20:43:29.318Z,95.00
2019-03-06T20:46:07.133Z,94.80
2019-03-06T20:48:42.073Z,94.70
2019-03-06T20:54:40.768Z,94.70
2019-03-06T20:57:19.434Z,94.90
2019-03-06T21:00:36.138Z,95.50
2019-03-06T21:03:00.852Z,95.20
2019-03-06T21:05:49.422Z,94.80
2019-03-06T21:08:18.944Z,94.60
2019-03-06T21:11:07.423Z,95.00
2019-03-06T21:13:36.792Z,94.70
2019-03-06T21:16:06.019Z,95.40
2019-03-06T21:18:35.184Z,94.90
2019-03-06T21:21:04.589Z,95.20
2019-03-06T21:23:33.723Z,95.20
2019-03-06T21:26:02.942Z,96.00
2019-03-06T21:28:32.308Z,95.90
2019-03-06T21:31:01.650Z,96.60
2019-03-06T21:33:30.968Z,96.80
2019-03-06T21:36:00.241Z,96.60
2019-03-06T21:38:29.517Z,95.60
2019-03-06T21:40:58.762Z,94.20
2019-03-06T21:43:31.891Z,96.20
2019-03-06T21:46:25.527Z,91.20
2019-03-06T21:48:58.063Z,86.40
2019-03-06T21:51:38.992Z,84.80
2019-03-06T21:54:21.221Z,82.10
2019-03-06T21:57:15.635Z,81.20
2019-03-06T22:02:32.013Z,84.80
2019-03-06T22:03:11.358Z,81.10
2019-03-06T22:05:31.795Z,80.00
2019-03-06T22:08:33.314Z,77.50
2019-03-06T22:11:12.493Z,79.70
2019-03-06T22:13:49.871Z,76.00
2019-03-06T22:17:19.868Z,75.70
2019-03-06T22:19:27.622Z,74.40
2019-03-06T22:22:42.444Z,74.20
2019-03-06T22:25:22.308Z,73.20
2019-03-06T22:28:05.644Z,72.90
2019-03-06T22:30:48.005Z,71.40
2019-03-06T22:33:36.611Z,73.30
2019-03-06T22:36:03.767Z,72.90
2019-03-06T22:38:44.767Z,71.30
2019-03-06T22:41:20.840Z,72.00
2019-03-06T22:43:56.107Z,72.00
2019-03-06T22:47:20.515Z,70.60
2019-03-06T22:50:21.165Z,70.20
2019-03-06T22:53:22.038Z,70.70
2019-03-06T22:56:10.890Z,70.10
2019-03-06T22:58:46.113Z,69.70
2019-03-06T23:05:00.310Z,73.20
2019-03-06T23:08:07.353Z,68.90
2019-03-06T23:11:08.452Z,69.00
2019-03-06T23:13:46.530Z,68.70
2019-03-06T23:18:03.555Z,68.60
2019-03-06T23:19:14.669Z,68.30
2019-03-06T23:22:03.473Z,67.90
2019-03-06T23:24:52.372Z,68.50
2019-03-06T23:27:50.253Z,67.60
2019-03-06T23:30:44.346Z,67.70
2019-03-06T23:39:50.419Z,67.30
2019-03-06T23:45:05.361Z,67.00
2019-03-06T23:47:34.260Z,66.80
2019-03-06T23:50:04.066Z,66.10
2019-03-06T23:55:13.655Z,65.60
2019-03-06T23:57:42.722Z,66.80
